English

Participants

Marathon by the Sea 2007
Half Marathon

Results

Classement Temps du Chrono Cadence/km Temps de la Puce/km Dossard First name Last name City Province Country Sexe Division Classement par Sexe Classement par Division
1 1:14:36 3:33 1:14:33 3477 William Fitzgerald Saint John NB CA M M3039 1/211 1/67
2 1:16:24 3:38 1:16:23 3075 Dean Strowbridge SAINT JOHN NB CA M M3039 2/211 2/67
3 1:18:49 3:45 1:18:48 3002 Todd Price Quispamsis NB CA M M3039 3/211 3/67
4 1:20:23 3:49 1:20:22 3325 Bruce Grant Saint John NB CA M M3039 4/211 4/67
5 1:21:32 3:52 1:21:31 3398 John Patrick Herron Bloomfield NB CA M M4049 5/211 1/71
6 1:22:00 3:54 1:21:59 3273 Evan Arsenault Saint John NB CA M M0119 6/211 1/3
7 1:23:07 3:57 1:23:06 3373 Todd Lambert Saint John NB CA M M3039 7/211 5/67
8 1:26:58 4:08 1:26:53 3032 Earle Burrows Grand Bay-Westf NB CA M M4049 8/211 2/71
9 1:27:38 4:10 1:27:36 3118 Don Murray Saint John NB CA M M5059 9/211 1/45
10 1:28:15 4:11 1:28:09 3484 Steve Lohnes Hampton NB CA M M4049 10/211 3/71
11 1:29:05 4:14 1:29:02 3392 Luke Couture Saint John NB CA M M0119 11/211 2/3
12 1:30:09 4:17 1:30:07 3436 JAMES MILLER SAINT JOHN NB CA M M4049 12/211 4/71
13 1:30:48 4:19 3427 Michael Breen Saint John NB CA M M4049 13/211 5/71
14 1:30:57 4:19 1:30:49 3396 Michael Eagles Fredericton NB CA M M4049 14/211 6/71
15 1:31:22 4:20 1:31:14 3356 Johnny Grant Dieppe NB CA M M4049 15/211 7/71
16 1:31:50 4:22 1:31:45 3389 Bob Forbes Riverview NB CA M M5059 16/211 2/45
17 1:32:17 4:23 1:32:13 3281 Andre Charlebois Saint John NB CA M M3039 17/211 6/67
18 1:32:48 4:24 1:32:40 3438 Brad Kirkpatrick Saint John NB CA M M3039 18/211 7/67
19 1:33:17 4:26 1:33:15 3113 Joe Burke Saint John NB CA M M6099 19/211 1/8
20 1:33:24 4:26 1:33:10 3362 Gareth Bowering Oromocto NB CA M M3039 20/211 8/67
21 1:33:30 4:26 1:33:22 3357 Satish Punna Moncton NB CA M M3039 21/211 9/67
22 1:33:33 4:27 1:33:25 3283 Bob Shine Thunder Bay ON CA M M4049 22/211 8/71
23 1:34:23 4:29 1:34:20 3289 Greg Parker Quispamsis NB CA M M3039 23/211 10/67
24 1:34:50 4:30 1:34:43 3257 Jeff Gregory Saint John NB CA M M4049 24/211 9/71
25 1:35:04 4:31 1:34:55 3360 Michel Babineau Dieppe NB CA M M4049 25/211 10/71
26 1:35:34 4:32 1:35:30 3146 STEVE DOHANEY SAINT JOHN NB CA M M4049 26/211 11/71
27 1:35:59 4:33 1:35:50 3213 Bob Sherrard Quispamsis NB CA M M4049 27/211 12/71
28 1:36:13 4:34 1:35:50 3301 Ian Reeves Saint John NB CA M M2029 28/211 1/17
29 1:36:17 4:34 1:36:03 3428 James Walkefr Saint John NB CA M M4049 29/211 13/71
30 1:36:18 4:34 1:36:12 3316 Steven Orr Quispamsis NB CA M M3039 30/211 11/67
31 1:36:36 4:35 1:36:11 3452 Ryan McKim Quispamsis NB CA M M2029 31/211 2/17
32 1:37:03 4:36 1:36:46 3079 Lloyd McLean RR 2 Pictou NS CA M M4049 32/211 14/71
33 1:37:11 4:37 1:37:05 3221 Scott Gillis Windsor Junctio NS CA M M4049 33/211 15/71
34 1:37:31 4:38 1:37:02 3194 Jason Thorne Rothesay NB CA M M3039 34/211 12/67
35 1:37:51 4:39 1:37:40 3381 Suzanne Doucet Quispamsis NB CA F F4049 1/240 1/90
36 1:37:58 4:39 1:37:22 3292 Ian Jones Hampden ME US M M3039 35/211 13/67
37 1:38:00 4:39 1:37:29 3425 Allison Smith Saint John NB CA F F3039 2/240 1/74
38 1:38:02 4:39 1:37:51 3367 Brian Scott Island View NB CA M M5059 36/211 3/45
39 1:38:02 4:39 1:37:57 3429 John Parks Saint John NB CA M M5059 37/211 4/45
40 1:38:13 4:40 1:38:06 3430 Jeremy Fry Bloomfield NB CA M M5059 38/211 5/45
41 1:38:18 4:40 1:37:57 3297 Dave Horgan Saint John NB CA M M3039 39/211 14/67
42 1:38:21 4:40 1:38:01 3471 Stephen Vickers Halifax NS CA M M3039 40/211 15/67
43 1:38:49 4:41 1:38:12 3072 Douglas Doucette Moncton NB CA M M4049 41/211 16/71
44 1:39:06 4:42 1:38:56 3249 Tom Watts Saint John NB CA M M3039 42/211 16/67
45 1:39:08 4:42 1:38:50 3482 Eric Desjardins Edmunston NB CA M M3039 43/211 17/67
46 1:39:11 4:43 1:38:59 3459 DAvid Meek Saint John NB CA M M5059 44/211 6/45
47 1:40:05 4:45 1:40:02 3053 Calvin Keith Quispamsis NB CA M M4049 45/211 17/71
48 1:40:06 4:45 1:39:49 3474 Alexandra Keedwell Charlottetown PE CA F F3039 3/240 2/74
49 1:40:24 4:46 1:40:07 3149 Mark Magleave Grand Bay-Westf NB CA M M5059 46/211 7/45
50 1:40:59 4:48 1:40:48 3403 John Woods Quispamsis NB CA M M4049 47/211 18/71
51 1:41:04 4:48 1:40:53 3402 Vicki Woods Quispamsis NB CA F F4049 4/240 2/90
52 1:41:09 4:48 1:40:51 3469 Bob Mellor Saint John NB CA M M4049 48/211 19/71
53 1:41:27 4:49 1:41:14 3335 Laura Smith St. John's NF CA F F2029 5/240 1/49
54 1:41:29 4:49 1:41:22 3263 Charles Edwards Irishtown NB CA M M3039 49/211 18/67
55 1:41:31 4:49 1:41:23 3265 darrell wilkins moncton NB CA M M5059 50/211 8/45
56 1:42:22 4:52 1:42:10 3058 Jason Gale Oromocto NB CA M M3039 51/211 19/67
57 1:42:22 4:52 1:42:10 3068 Nicolas Pilon Fredericton NB CA M M3039 52/211 20/67
58 1:42:32 4:52 1:41:57 3487 Wendell Munn Quispamsis NB CA M M4049 53/211 20/71
59 1:42:44 4:53 1:42:32 3472 Adam Long Oromocto NB CA M M3039 54/211 21/67
60 1:42:48 4:53 1:42:37 3035 Kevin Richard Douglas NB CA M M3039 55/211 22/67
61 1:43:13 4:54 1:41:47 3073 Joy Boutilier Rothesay NB CA F F2029 6/240 2/49
62 1:43:22 4:54 1:43:15 3272 Ed Hawkins Pictou NS CA M M3039 56/211 23/67
63 1:43:27 4:55 1:42:02 3488 Scott Crossman Riverview NB CA M M4049 57/211 21/71
64 1:43:34 4:55 1:43:28 3044 Joe Oliver Westfield NB CA M M4049 58/211 22/71
65 1:43:38 4:55 1:43:29 3313 Gary Bischof Quispamsis NB CA M M4049 59/211 23/71
66 1:43:43 4:55 1:42:08 3108 Matthew Stranach Quispamsis NB CA M M2029 60/211 3/17
67 1:43:46 4:56 1:43:19 3143 Peter Peters Saint John NB CA M M5059 61/211 9/45
68 1:43:52 4:56 1:43:16 3413 Joe Culligan Rothesay NB CA M M4049 62/211 24/71
69 1:43:52 4:56 1:43:15 3462 Kevin Culligan Black Point NB CA M M3039 63/211 24/67
70 1:44:34 4:58 1:43:44 3397 Darryl Cathcart Fredericton NB CA M M3039 64/211 25/67
71 1:44:38 4:58 1:44:17 3179 Yves Bourque Moncton NB CA M M3039 65/211 26/67
72 1:44:45 4:58 1:44:20 3193 Bill Kean Rothesay NB CA M M4049 66/211 25/71
73 1:45:10 4:60 1:44:42 3339 Paul Belanger Rothesay NB CA M M5059 67/211 10/45
74 1:45:14 4:60 1:44:39 3196 Kevin Duplisea Saint John NB CA M M3039 68/211 27/67
75 1:45:31 5:01 1:45:03 3159 Ron Amon New Maryland NB CA M M4049 69/211 26/71
76 1:45:33 5:01 1:45:08 3451 Ryan Powe Long Reach NB CA M M2029 70/211 4/17
77 1:45:34 5:01 1:45:17 3370 Roger Hallett Toronto ON CA M M3039 71/211 28/67
78 1:45:41 5:01 1:43:50 3332 Jeff Prosser Fredericton NB CA M M2029 72/211 5/17
79 1:45:50 5:01 1:45:41 3464 Mark Smith Saint John NB CA M M4049 73/211 27/71
80 1:45:53 5:02 1:45:33 3456 Michael Ling Quispamsis NB CA M M4049 74/211 28/71
81 1:45:58 5:02 1:45:48 3309 Dan Dineen Quispamsis NB CA M M3039 75/211 29/67
82 1:45:59 5:02 1:45:33 3098 Tasha Rocca Saint John NB CA F F3039 7/240 3/74
83 1:46:05 5:02 1:45:48 3215 Crystal Naves Saint John NB CA F F2029 8/240 3/49
84 1:46:05 5:02 1:45:47 3205 Colleen Cutler Saint John NB CA F F2029 9/240 4/49
85 1:46:40 5:04 1:46:18 3126 Andrew Oland Rothesay NB CA M M3039 76/211 30/67
86 1:47:15 5:05 1:46:54 3414 Keri Pettinger Saint John NB CA F F2029 10/240 5/49
87 1:47:19 5:06 1:47:03 3415 Derek Smith Saint John NB CA M M4049 77/211 29/71
88 1:47:41 5:07 1:47:26 3384 Eric Gallant Saint John NB CA M M2029 78/211 6/17
89 1:47:51 5:07 1:47:23 3287 Anna Bernard Mazerolle Settl NB CA F F4049 11/240 3/90
90 1:48:04 5:08 1:47:53 3401 Mike Cormier Beaverdam NB CA M M3039 79/211 31/67
91 1:48:18 5:08 1:47:06 3250 Stephen Bartlett Nasonworth NB CA M M4049 80/211 30/71
92 1:48:22 5:09 1:48:14 3468 Craig Dunn Halifax NS CA M M3039 81/211 32/67
93 1:48:42 5:10 1:47:56 3358 Carrie Punna Moncton NB CA F F3039 12/240 4/74
94 1:48:47 5:10 1:48:28 3132 David Galloway Quispamsis NB CA M M5059 82/211 11/45
95 1:48:56 5:10 1:48:37 3368 Lyn Young Moncton NB CA F F5059 13/240 1/24
96 1:49:11 5:11 1:48:51 3383 Jean Barry Moncton NB CA F F5059 14/240 2/24
97 1:49:15 5:11 1:48:34 3148 Danny Armstrong Saint John NB CA M M4049 83/211 31/71
98 1:49:18 5:11 1:48:42 3374 Sarah Haines New Maryland NB CA F F2029 15/240 6/49
99 1:49:18 5:11 1:48:43 3375 Terry Haines New Maryland NB CA M M5059 84/211 12/45
100 1:49:43 5:12 1:49:27 3154 Angie MacNeil Saint John NB CA F F2029 16/240 7/49
101 1:49:46 5:13 1:48:50 3115 Phil Harper Saint John NB CA M M4049 85/211 32/71
102 1:49:57 5:13 1:49:38 3255 Robin Stuart toronto ON CA M M4049 86/211 33/71
103 1:50:07 5:14 1:49:44 3300 Matthew Acker Halifax NS CA M M3039 87/211 33/67
104 1:50:08 5:14 1:49:04 3197 Robert DiDiodato Fredericton NB CA M M4049 88/211 34/71
105 1:50:08 5:14 1:50:04 3422 Paul Gilbride Saint John NB CA M M6099 89/211 2/8
106 1:50:16 5:14 1:49:14 3043 Gary McLaughlin Halifax NS CA M M5059 90/211 13/45
107 1:50:22 5:14 1:49:22 3182 Mark Magennis Saint John NB CA M M3039 91/211 34/67
108 1:50:25 5:14 1:48:56 3168 Nicole Cooper Oromocto NB CA F F2029 17/240 8/49
109 1:50:38 5:15 1:49:42 3480 Andre Roy Gaspe QC CA M M5059 92/211 14/45
110 1:50:46 5:15 1:49:31 3347 Tanya Van Buskirk Yarmouth NS CA F F4049 18/240 4/90
111 1:50:52 5:16 1:50:15 3051 Alonzo Reardon Saint John NB CA M M5059 93/211 15/45
112 1:50:57 5:16 1:50:19 3278 Connie Coffin Saint John NB CA F F3039 19/240 5/74
113 1:50:57 5:16 1:50:35 3445 Geoff Mobey Saint John NB CA M M3039 94/211 35/67
114 1:50:58 5:16 1:49:58 3338 Trevor Marshall Quispamsis NB CA M M3039 95/211 36/67
115 1:51:00 5:16 1:50:52 3355 Denis St-Onge Beresford NB CA M M4049 96/211 35/71
116 1:51:14 5:17 1:50:24 3223 Kendra McCully Moncton NB CA F F2029 20/240 9/49
117 1:51:18 5:17 1:51:09 3328 Erin OHara Nauwigewauk NB CA F F2029 21/240 10/49
118 1:51:19 5:17 1:51:10 3329 Kodi MacGougan Nauwigewauk NB CA F F2029 22/240 11/49
119 1:51:27 5:17 1:51:21 3449 Leo Vildosola Saint-Lazare QC CA M M3039 97/211 37/67
120 1:51:28 5:17 1:50:55 3404 Sandra Peacock Saint John NB CA F F4049 23/240 5/90
121 1:51:32 5:18 1:49:28 3175 Bronwyn Tanner St. Andrews NB CA F F3039 24/240 6/74
122 1:51:32 5:18 1:50:19 3015 KEVIN SEARS Quispamsis NB CA M M4049 98/211 36/71
123 1:51:39 5:18 1:51:05 3204 Sherry Cooper Saint John NB CA F F4049 25/240 6/90
124 1:51:43 5:18 1:51:21 3033 Sharon Turnell Quispamsis NB CA F F4049 26/240 7/90
125 1:52:01 5:19 1:50:35 3266 Brian Lowe Moncton NB CA M M5059 99/211 16/45
126 1:52:06 5:19 1:50:46 3350 christopher lloyd Montreal QC CA M M3039 100/211 38/67
127 1:52:10 5:19 1:50:59 3012 Scott MacLeod Saint John NB CA M M4049 101/211 37/71
128 1:52:13 5:20 1:51:09 3319 Pat Ryan Dartmouth NS CA M M5059 102/211 17/45
129 1:52:22 5:20 1:52:16 3119 Mike O'Brien Damascus NB CA M M4049 103/211 38/71
130 1:52:24 5:20 1:51:19 3147 Dawn Price-Macaulay Quispamsis NB CA F F3039 27/240 7/74
131 1:52:47 5:21 1:52:24 3315 Carla Graceffa Rothesay NB CA F F3039 28/240 8/74
132 1:52:56 5:22 1:52:56 3377 Gordon Plummer Upper Kingsclea NB CA M M5059 104/211 18/45
133 1:53:14 5:22 1:51:37 3453 John Hickey Summerville NB CA M M5059 105/211 19/45
134 1:53:19 5:23 1:51:54 3503 Tyrell Vail Grand Bay - Wes NB CA M M0119 106/211 3/3
135 1:53:28 5:23 1:52:25 3199 Margot Rankin Quispamsis NB CA F F4049 29/240 8/90
136 1:53:35 5:23 1:52:09 3156 Eldon McLean Halifax NS CA M M3039 107/211 39/67
137 1:54:02 5:25 1:53:34 3378 peter coakley minto NB CA M M5059 108/211 20/45
138 1:54:31 5:26 1:53:38 3209 Craig Wilson Saint John NB CA M M2029 109/211 7/17
139 1:54:32 5:26 1:53:14 3254 David Clifford Saint John NB CA M M3039 110/211 40/67
140 1:54:35 5:26 1:54:13 3473 Lloyd Chambers New Maryland NB CA M M3039 111/211 41/67
141 1:54:41 5:27 1:54:15 3123 Carolyn Khitab Saint John NB CA F F3039 30/240 9/74
142 1:54:42 5:27 1:54:25 3001 Mike Young Saint John NB CA M M3039 112/211 42/67
143 1:54:54 5:27 1:53:51 3426 Doug Myles Quispamsis NB CA M M3039 113/211 43/67
144 1:55:01 5:28 1:54:41 3385 Claire LeBlanc Moncton NB CA F F5059 31/240 3/24
145 1:55:20 5:28 1:54:46 3291 Gary Eatmon Woodstock NB CA M M4049 114/211 39/71
146 1:55:23 5:29 1:55:01 3152 Coleen Collings Saint John NB CA F F4049 32/240 9/90
147 1:55:23 5:29 1:55:01 3151 Marta Kelly Saint John NB CA F F3039 33/240 10/74
148 1:55:23 5:29 1:55:00 3334 Kim Elliott Rothesay NB CA F F3039 34/240 11/74
149 1:55:23 5:29 1:54:16 3444 Michael Waugh Saint John NB CA M M4049 115/211 40/71
150 1:55:24 5:29 1:54:17 3262 Peter Waugh Port Hastings NS CA M M5059 116/211 21/45
151 1:55:37 5:29 1:54:44 3294 Sarah Rose Sackville NB CA F F0119 35/240 1/1
152 1:55:42 5:29 1:55:06 3236 Eric Fournier Beresford NB CA M M3039 117/211 44/67
153 1:55:47 5:30 1:55:13 3212 Kelly MacDonald St.Stephen NB CA F F3039 36/240 12/74
154 1:55:51 5:30 1:55:30 3345 Peter MacKenzie Strathadam NB CA M M4049 118/211 41/71
155 1:56:22 5:31 1:55:49 3162 Angela Gabaldon St. Stephen NB CA F F3039 37/240 13/74
156 1:56:54 5:33 1:55:42 3418 Janice Hayes Quispamsis NB CA F F4049 38/240 10/90
157 1:56:57 5:33 1:56:03 3137 Beth Herron Hampton NB CA F F4049 39/240 11/90
158 1:57:07 5:34 1:55:55 3007 Laura Sears Quispamsis NB CA F F4049 40/240 12/90
159 1:57:11 5:34 1:55:41 3167 Jeff Cooper Oromocto NB CA M M3039 119/211 45/67
160 1:57:16 5:34 1:56:16 3172 Sara McKinnon Moncton NB CA F F2029 41/240 12/49
161 1:57:29 5:35 1:56:40 3409 Dale Clinton Saint John NB CA M M3039 120/211 46/67
162 1:57:34 5:35 1:57:24 3089 Melissa Braby Dartmouth NS CA F F2029 42/240 13/49
163 1:57:42 5:35 1:57:17 3270 Daniel Hatfield Fredericton NB CA M M3039 121/211 47/67
164 1:57:49 5:36 1:57:37 3165 Ann Thorburn Quispamsis NB CA F F4049 43/240 13/90
165 1:57:51 5:36 1:57:25 3158 Nancy Carr Saint John NB CA F F3039 44/240 14/74
166 1:57:51 5:36 1:57:33 3238 Megan Watson Saint John NB CA F F3039 45/240 15/74
167 1:57:51 5:36 1:57:40 3140 Lorna Drummond Quispamsis NB CA F F4049 46/240 14/90
168 1:57:52 5:36 1:57:41 3141 Allison Crowell Rothesay NB CA F F4049 47/240 15/90
169 1:57:58 5:36 1:57:31 3361 Dawn Kelly Fredericton NB CA F F3039 48/240 16/74
170 1:58:00 5:36 1:56:51 3038 Gabriela Tymowski Fredericton NB CA F F3039 49/240 17/74
171 1:58:03 5:36 1:57:39 3346 Shawna MacKenzie Strathadam NB CA F F3039 50/240 18/74
172 1:58:03 5:36 1:57:36 3161 Duncan Kelbaugh Saint John NB CA M M5059 122/211 22/45
173 1:58:15 5:37 1:56:42 3318 Kelly Grant Oromocto NB CA M M4049 123/211 42/71
174 1:58:15 5:37 1:56:42 3320 Margaret McLean Licoln NB CA F F4049 51/240 16/90
175 1:58:17 5:37 1:57:51 3388 Andrea Forsythe Fredericton NB CA F F2029 52/240 14/49
176 1:58:22 5:37 1:57:38 3202 Gina Hyslop Kingston NB CA F F3039 53/240 19/74
177 1:58:28 5:37 1:57:25 3066 Les Burridge St. Andrews NB CA M M5059 124/211 23/45
178 1:58:42 5:38 1:57:50 3099 Reena Kapadia Saint John NB CA F F2029 54/240 15/49
179 1:58:43 5:38 1:57:48 3279 Aisha Khedheri Saint John NB CA F F4049 55/240 17/90
180 1:58:46 5:38 1:56:57 3220 Timothy O'Brien Dartmouth NS CA M M3039 125/211 48/67
181 1:58:49 5:38 1:57:54 3237 Joan Kearney Halifax NS CA F F4049 56/240 18/90
182 1:58:55 5:39 1:58:27 3260 Shaun MacIntyre Halifax NS CA M M3039 126/211 49/67
183 1:59:12 5:39 1:57:37 3440 Tracey Underill Hanwell NB CA F F3039 57/240 20/74
184 1:59:15 5:40 1:58:08 3129 Mary Anne Cleghorn Saint John NB CA F F3039 58/240 21/74
185 1:59:16 5:40 1:58:18 3298 Loretta VanEkris Charlottetown PE CA F F4049 59/240 19/90
186 1:59:38 5:41 1:58:54 3432 Don Kredl Hampton NB CA M M5059 127/211 24/45
187 1:59:42 5:41 1:58:15 3206 Jeanann Fairweather Rothesay NB CA F F4049 60/240 20/90
188 1:59:51 5:41 1:58:21 3037 Alexandra Trask Waasis NB CA F F3039 61/240 22/74
189 1:59:57 5:42 1:58:32 3256 CHERYL TANTON SUMMERSIDE PE CA F F4049 62/240 21/90
190 2:00:06 5:42 1:58:24 3171 Henry Bertrand Fredericton NB CA M M4049 128/211 43/71
191 2:00:11 5:42 1:58:46 3261 Pam Schurman Summerside PE CA F F3039 63/240 23/74
192 2:00:19 5:43 1:59:19 3150 Donald Walsh Charlottetown PE CA M M4049 129/211 44/71
193 2:00:28 5:43 2:00:23 3198 Sean Foster Saint John NB CA M M3039 130/211 50/67
194 2:00:32 5:43 1:59:35 3241 Cory Gallant Rothesay NB CA M M3039 131/211 51/67
195 2:00:32 5:43 1:59:35 3243 Adrienne Keyes Saint John NB CA F F4049 64/240 22/90
196 2:00:35 5:43 1:59:48 3034 Claudette Maltais Charlo NB CA F F5059 65/240 4/24
197 2:00:38 5:44 2:00:26 3268 John Dempsey Beaver Dam NB CA M M2029 132/211 8/17
198 2:00:40 5:44 1:59:34 3218 Robin MacIntosh Miramichi NB CA F F2029 66/240 16/49
199 2:00:40 5:44 1:59:44 3130 Debbie Blais Saint John NB CA F F4049 67/240 23/90
200 2:00:40 5:44 1:59:45 3131 Richard Blais Rothesay NB CA M M5059 133/211 25/45
201 2:00:41 5:44 2:00:04 3104 Hope Lavin-MacDouga Quispamsis NB CA F F4049 68/240 24/90
202 2:00:58 5:44 1:59:49 3372 Marie-Helene Forget Lucasville NS CA F F3039 69/240 24/74
203 2:00:59 5:45 1:59:41 3481 Brent Thompson Rothesay NB CA M M4049 134/211 45/71
204 2:01:03 5:45 1:59:58 3386 John Feeney Fredericton NB CA M M5059 135/211 26/45
205 2:01:12 5:45 2:00:00 3288 christa jimenez saint John NB CA F F3039 70/240 25/74
206 2:01:27 5:46 2:00:15 3285 Nicola Robichaud Saint John NB CA F F4049 71/240 25/90
207 2:01:47 5:47 2:00:36 3431 Gertrude Mooney Saint John NB CA F F6099 72/240 1/2
208 2:02:02 5:48 2:00:11 3087 Gillian Marriott Calgary AB CA F F4049 73/240 26/90
209 2:02:15 5:48 2:01:21 3454 Nancy Hickey Summerville NB CA F F4049 74/240 27/90
210 2:02:41 5:49 2:01:32 3352 Karine Savard Fredericton NB CA F F3039 75/240 26/74
211 2:02:41 5:49 2:01:26 3359 Carla Harris Quispamsis NB CA F F4049 76/240 28/90
212 2:02:46 5:50 2:01:54 3410 Cail James McLaughl Saint John NB CA M M2029 136/211 9/17
213 2:02:46 5:50 2:01:38 3107 Sheila Kelley Saint John NB CA F F3039 77/240 27/74
214 2:02:46 5:50 2:01:54 3411 Meagan Wood Rothesay NB CA F F2029 78/240 17/49
215 2:02:58 5:50 2:01:20 3348 Alison Logue Beechwood NB CA F F2029 79/240 18/49
216 2:02:58 5:50 2:02:07 3090 Stacie MacCormack Quispamsis NB CA F F2029 80/240 19/49
217 2:03:20 5:51 2:02:58 3311 Lisa Turcotte Calgary AB CA F F4049 81/240 29/90
218 2:03:42 5:52 2:02:49 3045 Elizabeth Keyes-Oli Westfield NB CA F F4049 82/240 30/90
219 2:03:45 5:52 2:02:14 3039 Wanda Schuttenbeld Maugerville NB CA F F4049 83/240 31/90
220 2:03:47 5:52 2:03:18 3290 Joy Durdan GrandBay-Westfi NB CA F F3039 84/240 28/74
221 2:03:48 5:53 2:03:33 3088 Carole Morey Moncton NB CA F F4049 85/240 32/90
222 2:03:55 5:53 2:03:40 3155 Colin Marr Halifax NS CA M M2029 137/211 10/17
223 2:04:05 5:53 2:03:56 3052 Michele Arthur Kanata ON CA F F4049 86/240 33/90
224 2:04:26 5:54 2:04:01 3296 Shelly Roberts Truro NS CA F F3039 87/240 29/74
225 2:04:31 5:55 2:04:02 3435 Manon Bosse Rothesay NB CA F F3039 88/240 30/74
226 2:04:36 5:55 2:03:19 3217 Al Babineau Saint John NB CA M M4049 138/211 46/71
227 2:04:37 5:55 2:03:27 3097 Margaret Mann Fredericton NB CA F F4049 89/240 34/90
228 2:04:38 5:55 2:03:45 3139 Ann Connolly Quispamsis NB CA F F5059 90/240 5/24
229 2:04:45 5:55 2:03:52 3124 Helen Sullivan Saint John NB CA F F3039 91/240 31/74
230 2:04:49 5:55 2:04:06 3371 Bernie Allain Bathurst NB CA M M5059 139/211 27/45
231 2:04:52 5:56 2:03:46 3178 James Dunn New Maryland NB CA M M4049 140/211 47/71
232 2:04:52 5:56 2:04:23 3200 David Lorette Rothesay NB CA M M4049 141/211 48/71
233 2:04:58 5:56 2:03:24 3128 Roger Boutilier Wolfville NS CA M M5059 142/211 28/45
234 2:05:18 5:57 2:03:46 3269 Elizabeth MacDonald Rothesay NB CA F F3039 92/240 32/74
235 2:05:18 5:57 2:04:27 3312 Laura Roche Miramichi NB CA F F3039 93/240 33/74
236 2:05:19 5:57 2:03:57 3463 Shannah Jensen Saint John NB CA F F2029 94/240 20/49
237 2:05:24 5:57 2:04:18 3235 Shauna Harris Miramichi NB CA F F2029 95/240 21/49
238 2:05:46 5:58 2:04:36 3042 Roger Ebbett Bedford NS CA M M5059 143/211 29/45
239 2:05:47 5:58 2:05:06 3282 Nancy Shine Thunder Bay ON CA F F4049 96/240 35/90
240 2:05:49 5:58 2:04:38 3224 Bruce Moore Rothesay NB CA M M3039 144/211 52/67
241 2:05:56 5:59 2:04:32 3259 Greg MacKenzie Quispamsis NB CA M M4049 145/211 49/71
242 2:06:25 5:60 2:05:31 3323 noella newman saint john NB CA F F4049 97/240 36/90
243 2:06:34 5:60 2:05:09 3267 Jeff White Saint John NB CA M M3039 146/211 53/67
244 2:06:43 6:01 2:05:33 3395 shelley Scott Saint John NB CA F F3039 98/240 34/74
245 2:06:50 6:01 2:05:31 3144 Don Leblanc Grand Bay-Westf NB CA M M4049 147/211 50/71
246 2:06:51 6:01 2:06:31 3478 Pal Mann Oromocto NB CA M M4049 148/211 51/71
247 2:06:51 6:01 2:06:30 3340 Blaine Thurston Oromocto NB CA M M4049 149/211 52/71
248 2:07:00 6:02 2:05:40 3394 jeffrey covert whites lake ns NS CA M M4049 150/211 53/71
249 2:07:05 6:02 2:06:26 3330 David Farren Quispamsis NB CA M M3039 151/211 54/67
250 2:07:05 6:02 2:06:54 3247 Roger Casey Moncton NB CA M M5059 152/211 30/45
251 2:07:16 6:02 2:06:05 3011 Debra McCluskey-Mac Saint John NB CA F F4049 99/240 37/90
252 2:07:27 6:03 2:06:39 3081 Andrea Haughan RR 2 Pictou NS CA F F4049 100/240 38/90
253 2:07:32 6:03 2:06:57 3233 Pam MacMillan St Stephen NB CA F F3039 101/240 35/74
254 2:07:36 6:03 2:06:29 3442 Robert Pelletier Saint John NB CA M M3039 153/211 55/67
255 2:07:43 6:04 2:06:54 3111 Elizabeth Jadoo Quispamsis NB CA F F4049 102/240 39/90
256 2:07:43 6:04 2:06:54 3112 Steve Jadoo Quispamsis NB CA M M5059 154/211 31/45
257 2:07:43 6:04 2:06:04 3489 Kathleen Barabas New York NY US F F4049 103/240 40/90
258 2:07:44 6:04 2:06:04 3490 Carlos cadema New York NY US M M3039 155/211 56/67
259 2:07:45 6:04 2:06:58 3225 Fran?ois Beaulieu Saint John NB CA M M4049 156/211 54/71
260 2:07:54 6:04 2:06:23 3321 ?milie Godbout-Beau Moncton NB CA F F2029 104/240 22/49
261 2:08:04 6:05 2:07:12 3483 Jacques Pichette Edmunston NB CA M M4049 157/211 55/71
262 2:08:05 6:05 2:06:17 3057 Katie Tingley Toronto ON CA F F3039 105/240 36/74
263 2:08:12 6:05 2:07:37 3253 Carrie Robart-Murra Stillwater Lake NS CA F F3039 106/240 37/74
264 2:08:14 6:05 2:07:36 3274 Rendell Smith Quispamsis NB CA M M5059 158/211 32/45
265 2:08:35 6:06 2:07:11 3145 Claudette Maxwell Saint John NB CA F F4049 107/240 41/90
266 2:08:46 6:07 2:08:23 3457 Lori Ward Sackville NB CA F F3039 108/240 38/74
267 2:09:07 6:08 2:08:46 3069 Kevin Boulter grand bay/westf NB CA M M4049 159/211 56/71
268 2:09:13 6:08 2:08:18 3475 Elizabeth Rowe Fredericton NB CA F F4049 109/240 42/90
269 2:09:14 6:08 2:08:07 3127 Mary Beth Taylor Saint John NB CA F F2029 110/240 23/49
270 2:09:15 6:08 2:08:04 3091 Joyce Crompton Quispamsis NB CA F F5059 111/240 6/24
271 2:09:21 6:08 2:08:03 3181 Mirella Babineau Moncton NB CA F F3039 112/240 39/74
272 2:09:24 6:08 2:08:13 3286 Rob Scott saint john NB CA M M4049 160/211 57/71
273 2:09:25 6:09 2:08:17 3222 Della Day Saint John NB CA F F4049 113/240 43/90
274 2:09:27 6:09 2:08:42 3105 Kathryn McNicoll Orleans ON CA F F4049 114/240 44/90
275 2:09:27 6:09 2:08:21 3349 Don DAY Gloucester ON CA M M5059 161/211 33/45
276 2:09:28 6:09 2:08:40 3439 Chris Clinton Saint John NB CA M M3039 162/211 57/67
277 2:09:29 6:09 2:08:31 3354 Beverly Prosser Quispamsis NB CA F F4049 115/240 45/90
278 2:09:30 6:09 2:08:31 3337 Eleanor Marshall Quispamsis NB CA F F3039 116/240 40/74
279 2:09:57 6:10 2:08:21 3317 Monique St.Amand Saint john NB CA F F4049 117/240 46/90
280 2:10:03 6:10 2:08:50 3342 Bruce Robinson Quspamsis NB CA M M5059 163/211 34/45
281 2:10:03 6:10 2:08:58 3190 Marcelle DeMerchant Quispamsis NB CA F F4049 118/240 47/90
282 2:10:04 6:10 2:08:59 3092 Cathy Coyle Rothesay NB CA F F4049 119/240 48/90
283 2:10:04 6:10 2:09:42 3407 Janelle Shillington Saint John NB CA F F3039 120/240 41/74
284 2:10:08 6:11 2:08:37 3036 Brad Trask Waasis NB CA M M4049 164/211 58/71
285 2:10:09 6:11 2:09:00 3333 Joanne Pretorius Oromocto NB CA F F3039 121/240 42/74
286 2:10:09 6:11 2:08:35 3195 Rhonda O'Quinn Rusagonis NB CA F F4049 122/240 49/90
287 2:10:10 6:11 2:09:38 3324 Tina Logue Rothesay NB CA F F3039 123/240 43/74
288 2:10:39 6:12 2:09:20 3424 Jennifer Perry GrandBay Westfi NB CA F F3039 124/240 44/74
289 2:10:46 6:12 2:09:30 3164 Chamila Jayasekara Saint John NB CA F F3039 125/240 45/74
290 2:10:46 6:12 2:09:30 3103 Lori Bewsher Grand Bay-Westf NB CA F F3039 126/240 46/74
291 2:11:11 6:14 2:09:41 3380 John Braam Clifton Royal NB CA M M4049 165/211 59/71
292 2:11:14 6:14 2:09:44 3060 Jill Edney Quispamsis NB CA F F4049 127/240 50/90
293 2:11:15 6:14 2:10:03 3419 Brenda Drmmond Quispamsis NB CA F F5059 128/240 7/24
294 2:11:28 6:14 2:09:50 3114 Gary Mittelholtz Grand Bay-Westf NB CA M M5059 166/211 35/45
295 2:11:42 6:15 2:10:41 3293 Heather Davis Saint John NB CA F F2029 129/240 24/49
296 2:11:45 6:15 2:10:31 3096 Bonnie McEachern Montreal QC CA F F5059 130/240 8/24
297 2:12:00 6:16 2:10:31 3083 Mike Izma Stratford ON CA M M5059 167/211 36/45
298 2:12:00 6:16 2:10:24 3326 Tanya McGrath Saint John NB CA F F2029 131/240 25/49
299 2:12:00 6:16 2:10:24 3327 Justin McGrath Saint John NB CA M M3039 168/211 58/67
300 2:12:29 6:17 2:12:05 3504 Sherri Colwell-McCa Saint John NB CA F F4049 132/240 51/90
301 2:12:30 6:17 2:10:48 3170 Nancy Coy Fredericton NB CA F F5059 133/240 9/24
302 2:12:36 6:18 2:11:41 3271 Cindra Kelly Windsor NS CA F F4049 134/240 52/90
303 2:12:40 6:18 2:11:17 3448 Karen French Saint John NB CA F F4049 135/240 53/90
304 2:12:44 6:18 2:11:26 3120 Sylvie Bourgeois Dieppe NB CA F F4049 136/240 54/90
305 2:12:44 6:18 2:11:26 3121 Raymond Bourgeois Dieppe NB CA M M4049 169/211 60/71
306 2:12:55 6:18 2:11:35 3041 Starr Hersey Saint John NB CA F F4049 137/240 55/90
307 2:13:04 6:19 2:12:35 3276 Lindsay Savoie Saint John NB CA F F3039 138/240 47/74
308 2:13:04 6:19 2:12:35 3201 Janet Lorette Rothesay NB CA F F3039 139/240 48/74
309 2:13:18 6:20 2:12:27 3376 alison bates Saint John NB CA F F2029 140/240 26/49
310 2:13:35 6:20 2:12:01 3416 Kathy Woodhouse Saint John NB CA F F4049 141/240 56/90
311 2:13:54 6:21 2:12:38 3351 Paula Nicol Sackville NB CA F F3039 142/240 49/74
312 2:14:04 6:22 2:13:33 3467 Shelly Crossman Moncton NB CA F F3039 143/240 50/74
313 2:14:07 6:22 2:13:03 3076 Jeff Burridge Saint John NB CA M M2029 170/211 11/17
314 2:14:08 6:22 2:13:02 3067 Cindy Holland Belleisle NB CA F F4049 144/240 57/90
315 2:14:20 6:22 2:13:43 3031 Carla Olive Saint John NB CA F F4049 145/240 58/90
316 2:14:29 6:23 2:14:15 3245 Joan Lutes Moncton NB CA F F5059 146/240 10/24
317 2:14:41 6:23 2:13:19 3277 Tanya Hogan Saint John NB CA F F4049 147/240 59/90
318 2:15:02 6:24 2:13:36 3142 Susan Mayes Quispamsis NB CA F F3039 148/240 51/74
319 2:15:02 6:24 2:13:35 3369 chris mayes Saint John NB CA M M3039 171/211 59/67
320 2:15:13 6:25 2:14:18 3240 Giselle Collette Saint John NB CA F F3039 149/240 52/74
321 2:15:18 6:25 2:13:45 3458 Debby Little GrandBay NB CA F F3039 150/240 53/74
322 2:15:25 6:26 2:14:14 3062 Jeff White Hammonds Plains NS CA M M3039 172/211 60/67
323 2:15:43 6:26 2:15:27 3050 Julie Wood Saint John NB CA F F2029 151/240 27/49
324 2:15:43 6:26 2:15:28 3486 Alexis Brown Saint John NB CA F F2029 152/240 28/49
325 2:15:47 6:27 2:14:26 3086 Monty Friend Halifax NS CA M M3039 173/211 61/67
326 2:15:53 6:27 2:15:24 3192 Sue Kean Rothesay NB CA F F3039 153/240 54/74
327 2:15:58 6:27 2:15:07 3447 Ed Bowe Grand Bay-Westf NB CA M M6099 174/211 3/8
328 2:16:09 6:28 2:14:58 3185 Kathy Vair Saint John NB CA F F4049 154/240 60/90
329 2:16:11 6:28 2:15:01 3188 Nancy Parker Saint John NB CA F F4049 155/240 61/90
330 2:16:20 6:28 2:15:06 3093 Isla McEachern Halifax NS CA F F4049 156/240 62/90
331 2:16:21 6:28 2:15:03 3363 julie barrette-cair grand bay NB CA F F4049 157/240 63/90
332 2:16:27 6:29 2:14:51 3231 Rick Mehta Wolfville NS CA M M3039 175/211 62/67
333 2:16:27 6:29 2:15:07 3496 Maggie Johnson Quispamsis NB CA F F2029 158/240 29/49
334 2:16:28 6:29 2:16:14 3109 Angela Taylor moncton NB CA F F4049 159/240 64/90
335 2:16:33 6:29 2:15:20 3016 BETH SEARS Quispamsis NB CA F F4049 160/240 65/90
336 2:16:34 6:29 2:14:55 3014 Harry O'Neill Quispamsis NB CA M M6099 176/211 4/8
337 2:16:37 6:29 2:15:02 3417 Janet Kerzner Saint John NB CA F F4049 161/240 66/90
338 2:16:56 6:30 2:15:36 3040 Cynthia Sheehan Saint John NB CA F F3039 162/240 55/74
339 2:16:59 6:30 2:16:22 3341 Karen Gallagher Georgetown ON CA F F4049 163/240 67/90
340 2:17:10 6:31 2:16:00 3019 Elona Beckett Saint John NB CA F F4049 164/240 68/90
341 2:17:10 6:31 2:16:01 3020 Jim Burns Hampton NB CA M M4049 177/211 61/71
342 2:17:16 6:31 2:16:15 3302 Carolyn Boreland Quispamsis NB CA F F2029 165/240 30/49
343 2:17:23 6:31 2:16:22 3275 Bill Murphy Saint John NB CA M M4049 178/211 62/71
344 2:17:31 6:32 2:15:58 3461 Amanda Kueppers Rothesay NB CA F F2029 166/240 31/49
345 2:17:31 6:32 2:15:57 3460 Ruth Glady Summerside PE CA F F4049 167/240 69/90
346 2:18:05 6:33 2:16:51 3135 Dianne LeBlanc Moncton NB CA F F4049 168/240 70/90
347 2:18:05 6:33 2:16:51 3244 Kellie Hoar Moncton NB CA F F3039 169/240 56/74
348 2:18:16 6:34 2:17:22 3227 Gordie Rhymes Sydney NS CA M M4049 179/211 63/71
349 2:18:16 6:34 2:17:23 3228 Melanie Higgins Sydney NS CA F F4049 170/240 71/90
350 2:18:24 6:34 2:17:30 3366 Corey Griffin Fredericton NB CA M M3039 180/211 63/67
351 2:18:48 6:35 2:16:56 3013 Rena Kasidonis Fredericton NB CA F F3039 171/240 57/74
352 2:18:53 6:35 2:17:04 3264 Joseph Blanchard Willow Grove NB CA M M2029 181/211 12/17
353 2:19:19 6:37 2:17:50 3160 Erika MacDonald Quispamsis NB CA F F3039 172/240 58/74
354 2:19:20 6:37 2:18:06 3229 Tina Boudreau Moncton NB CA F F4049 173/240 72/90
355 2:19:32 6:37 2:18:12 3216 Heather Alder Quispamsis NB CA F F3039 174/240 59/74
356 2:19:42 6:38 2:19:22 3214 Tom Peiser Rothesay NB CA M M3039 182/211 64/67
357 2:19:55 6:38 2:18:29 3021 Amanda Fowlie Rothesay NB CA F F2029 175/240 32/49
358 2:20:28 6:40 2:19:23 3465 Suzanne Lowthers Fredericton NB CA F F3039 176/240 60/74
359 2:20:33 6:40 2:19:57 3433 Joe Frigault Saint John NB CA M M4049 183/211 64/71
360 2:21:37 6:43 2:20:14 3450 Leann Wright Saint John NB CA F F3039 177/240 61/74
361 2:21:38 6:43 2:20:22 3299 Joan Poitias Moncton NB CA F F4049 178/240 73/90
362 2:21:41 6:43 2:20:05 3466 Keith Dickson Saint John NB CA M M2029 184/211 13/17
363 2:21:45 6:44 2:20:44 3303 Joshua Boreland Quispamsis NB CA M M2029 185/211 14/17
364 2:21:52 6:44 2:20:50 3322 Beth Ryder Burton NB CA F F4049 179/240 74/90
365 2:21:54 6:44 2:21:16 3003 Mark Peirson Lower Coverdale NB CA M M4049 186/211 65/71
366 2:21:54 6:44 2:21:16 3004 Kendra Wentzell Lower Coverdale NB CA F F4049 180/240 75/90
367 2:22:04 6:44 2:20:43 3080 Sally Carpenter Riverview NB CA F F4049 181/240 76/90
368 2:22:13 6:45 2:20:49 3305 Keri-Lynn LeBlanc Quispamsis NB CA F F2029 182/240 33/49
369 2:22:14 6:45 2:20:47 3306 David LeBlanc Quispamsis NB CA M M4049 187/211 66/71
370 2:22:32 6:46 2:21:40 3136 Alex warner North vancouver BC CA M M2029 188/211 15/17
371 2:22:37 6:46 2:22:14 3408 Gary Coyle Saint John NB CA M M4049 189/211 67/71
372 2:22:46 6:46 2:21:21 3476 Jennifer O'Brien Toronto ON CA F F3039 183/240 62/74
373 2:22:56 6:47 2:21:15 3280 Bruce Ives Saint John NB CA M M5059 190/211 37/45
374 2:23:02 6:47 2:21:34 3084 Mariannna Groots Stratford ON CA F F5059 184/240 11/24
375 2:23:07 6:47 2:22:01 3071 Jessica Jomphe Oromocto NB CA F F2029 185/240 34/49
376 2:23:27 6:48 2:22:08 3295 Lesley Rogers Saint John NB CA F F4049 186/240 77/90
377 2:23:35 6:49 2:23:21 3074 Tanya Gibson Toronto ON CA F F3039 187/240 63/74
378 2:23:41 6:49 2:21:57 3470 Jan Newett Ellsworth US F F4049 188/240 78/90
379 2:23:52 6:50 2:22:30 3437 Darlene Wright Upper Sackville NS CA F F4049 189/240 79/90
380 2:24:00 6:50 2:22:30 3314 Valerie Mawhinney Chance Harbour NB CA F F4049 190/240 80/90
381 2:24:09 6:50 2:22:50 3391 Kathy Dumouchel Saint John NB CA F F3039 191/240 64/74
382 2:24:14 6:51 2:23:07 3230 Shelly Biggar Saint John NB CA F F4049 192/240 81/90
383 2:24:16 6:51 2:23:37 3163 Ellen Desmond Rothesay NB CA F F4049 193/240 82/90
384 2:24:45 6:52 2:23:29 3063 Cathleen O'Leary Rothesay NB CA F F2029 194/240 35/49
385 2:25:04 6:53 2:23:36 3169 Christina Waddy Halifax NS CA F F2029 195/240 36/49
386 2:25:40 6:55 2:24:43 3047 Murratte Graves Upper Golden Gr NB CA F F5059 196/240 12/24
387 2:25:53 6:55 2:24:49 3234 Susanne Hovey Moncton NB CA F F3039 197/240 65/74
388 2:27:06 6:59 2:25:21 3455 Mark Fullerton Rothesay NB CA M M3039 191/211 65/67
389 2:27:21 6:59 2:25:49 3284 Don Sutherland Rothesay NB CA M M4049 192/211 68/71
390 2:27:33 6:60 2:26:14 3186 Rene Bourque Dieppe NB CA M M5059 193/211 38/45
391 2:28:01 7:01 2:27:20 3008 Caroline LeBlanc Saint John NB CA F F3039 198/240 66/74
392 2:28:05 7:02 2:26:33 3166 Chuck Todd Hampton NB CA M M5059 194/211 39/45
393 2:28:20 7:02 2:28:08 3110 keith Taylor moncton NB CA M M5059 195/211 40/45
394 2:28:20 7:02 2:26:44 3421 Joseph Day Hampton NB CA M M6099 196/211 5/8
395 2:28:35 7:03 2:28:20 3251 Mary Anne Carlos Moncton NB CA F F5059 199/240 13/24
396 2:28:35 7:03 2:27:24 3117 Kim Banks Grand Bay-Westf NB CA F F4049 200/240 83/90
397 2:29:14 7:05 2:27:53 3208 Shelly Hatt Saint John NB CA F F2029 201/240 37/49
398 2:29:15 7:05 2:27:51 3485 Krista Moore Quispamsis NB CA F F2029 202/240 38/49
399 2:29:15 7:05 2:27:51 3393 Cheryl Moore Quispamsis NB CA F F2029 203/240 39/49
400 2:29:15 7:05 2:27:54 3049 Karlene Wall Saint John NB CA F F2029 204/240 40/49
401 2:29:28 7:06 2:28:00 3176 Patti Graham Saint John NB CA F F2029 205/240 41/49
402 2:29:54 7:07 2:28:19 3116 Marilyn Williams Saint John NB CA F F5059 206/240 14/24
403 2:29:54 7:07 2:28:20 3423 Clare Northcott Quispamsis NB CA F F4049 207/240 84/90
404 2:30:08 7:07 2:28:48 3133 Sue Hemmings Saint john NB CA F F3039 208/240 67/74
405 2:31:04 7:10 2:29:43 3191 Karen Grigg Grand Bay - Wes NB CA F F2029 209/240 42/49
406 2:31:04 7:10 2:29:42 3441 Kevin Steeves Saint John NB CA M M3039 197/211 66/67
407 2:31:18 7:11 2:29:53 3307 Darren LeBlanc Quispamsis NB CA M M2029 198/211 16/17
408 2:31:18 7:11 2:29:53 3189 Teresa Cassidy Quispamsis NB CA F F3039 210/240 68/74
409 2:31:30 7:11 2:30:09 3005 Lindsey Jones Halifax NS CA F F2029 211/240 43/49
410 2:32:10 7:13 2:30:54 3207 Anita Toogood Moncton NB CA F F4049 212/240 85/90
411 2:32:35 7:14 2:30:59 3353 Joanne Daggett Quispamsis NB CA F F3039 213/240 69/74
412 2:33:18 7:16 2:32:46 3029 Norman Pierce Quispamsis NB CA M M6099 199/211 6/8
413 2:33:24 7:17 2:32:09 3226 Anne Murdock Moncton NB CA F F4049 214/240 86/90
414 2:34:35 7:20 2:33:09 3399 Melinda Sheehan Saint John NB CA F F3039 215/240 70/74
415 2:34:46 7:21 2:34:07 3125 Maureen Desmond Saint John NB CA F F4049 216/240 87/90
416 2:35:23 7:22 2:33:32 3331 Jim Creamer Saint John NB CA M M5059 200/211 41/45
417 2:35:57 7:24 2:34:41 3434 Tim Kaufman Harbor City CA US M M4049 201/211 69/71
418 2:37:26 7:28 2:36:45 3344 Anny Pelletier Saint John NB CA F F4049 217/240 88/90
419 2:38:14 7:30 2:38:01 3183 Bill Matheson West Dover, HRM NS CA M M5059 202/211 42/45
420 2:38:27 7:31 2:37:07 3211 Jinell Allaby Hampton NB CA F F2029 218/240 44/49
421 2:38:27 7:31 2:37:49 3070 Peter McDevitt Saint John NB CA M M4049 203/211 70/71
422 2:38:36 7:31 2:38:23 3184 Jane Matheson West Dover, HRM NS CA F F5059 219/240 15/24
423 2:38:50 7:32 2:37:34 3364 Heather Welling Grand Barachois NB CA F F2029 220/240 45/49
424 2:39:15 7:33 2:39:00 3248 Kathryn Casey Moncton NB CA F F5059 221/240 16/24
425 2:41:40 7:40 2:39:39 3420 Frederick Saunders Saint John NB CA M M6099 204/211 7/8
426 2:43:08 7:44 2:42:30 3106 Patricia Gallagher Quispamsis NB CA F F3039 222/240 71/74
427 2:43:21 7:45 2:42:04 3310 Jeanne Gallant Saint John NB CA F F4049 223/240 89/90
428 2:43:21 7:45 2:42:04 3308 Nancy Steele Saint John NB CA F F5059 224/240 17/24
429 2:44:15 7:48 2:43:35 3059 Claire Garnett Saint John NB CA F F5059 225/240 18/24
430 2:44:47 7:49 2:44:14 3006 Linda O'Hara Rothesay NB CA F F5059 226/240 19/24
431 2:48:00 7:58 2:46:23 3387 Lisa Pearson Smiths Creek NB CA F F2029 227/240 46/49
432 2:48:03 7:58 2:46:30 3443 Suzanne Henwood Saint John NB CA F F3039 228/240 72/74
433 2:48:03 7:58 2:47:23 3077 Lois Nickerson Saint John NB CA F F5059 229/240 20/24
434 2:54:29 8:17 2:53:24 3343 Mary Anna Morris Saint John NB CA F F2029 230/240 47/49
435 3:00:23 8:33 2:59:27 3054 Susan Lee Campbell Saint John NB CA F F5059 231/240 21/24
436 3:01:01 8:35 2:59:34 3365 Angela-Jo Griffin Fredericton NB CA F F3039 232/240 73/74
437 3:12:20 9:07 3:10:51 3055 Cheryl Donovan Saint John NB CA F F3039 233/240 74/74
438 3:13:41 9:11 3:13:39 3022 Jean-Marc Levesque Quispamsis NB CA M M3039 205/211 67/67
439 3:13:41 9:11 3:13:39 3023 Monique Levesque Ki Quispamsis NB CA F F4049 234/240 90/90
440 3:13:42 9:11 3:13:38 3025 Gerard Levesque Fredericton NB CA M M6099 206/211 8/8
441 3:13:44 9:11 3:13:42 3180 Nancy Williston Fredericton NB CA F F5059 235/240 22/24
442 3:13:45 9:11 3:13:42 3252 Linda Lee Saint John NB CA F F5059 236/240 23/24
443 3:18:11 9:24 3:16:34 3258 Myra Rodrigues Toronto ON CA F F6099 237/240 2/2
444 3:18:12 9:24 3:16:35 3232 Peter McDougall Fredericton NB CA M M4049 207/211 71/71
445 3:19:51 9:29 3:19:48 3173 Amy Henderson Fredericton NB CA F F2029 238/240 48/49
446 3:19:52 9:29 3:19:48 3174 Greg Plume Fredericton NB CA M M2029 208/211 17/17
447 3:24:50 9:43 3:23:11 3018 David Legassick Willow Grove NB CA M M5059 209/211 43/45
448 3:50:19 10:55 3:50:16 3246 Don Lutes Moncton NB CA M M5059 210/211 44/45
449 3:57:41 11:16 3:57:38 3219 Jennifer Buck Quispamsis NB CA F F2029 239/240 49/49
450 3:58:29 11:19 3:58:27 3405 Linda Campbell Rothesay NB CA F F5059 240/240 24/24
451 3:59:00 11:20 3:58:57 3406 Billy Campbell Rothesay NB CA M M5059 211/211 45/45

Résultats par: Atlantic Chip Timing
www.atlanticchip.ca

Main Areas

Évènements

Soyez inspiré, relevez le défi. Fixez un objectif de l’évènement pour 2018.

Boutiques près de chez vous

Cherchez votre boutique Coin des Coureurs le plus proche.

Avez-vous des questions?

Nos experts sont à votre disposition pour vous aider avec toutes vos questions.

Essayez-vous de créer un événement de course?


Avant de créer un événement, vous devez premièrement vous connecter à votre profil, ou créer un profil.

Une fois connecte, vous serez alors dirigé vers une formulaire de course.